Time;durP1;ratioP1;P1;durP2;ratioP2;P2;SDS_P1;SDS_P2;PMS_P1;PMS_P2;Temp;Humidity;BMP_temperature;BMP_pressure;BME280_temperature;BME280_humidity;BME280_pressure;Samples;Min_cycle;Max_cycle;Signal;HPM_P1;HPM_P2
2021/08/12 00:00:15;;;;;;;4.78;2.80;;;17.60;79.50;;;;;;2060875;28;20031;-95
2021/08/12 00:01:16;;;;;;;4.10;2.67;;;17.60;79.50;;;;;;2056392;28;20034;-96
2021/08/12 00:02:17;;;;;;;4.22;2.78;;;17.60;79.60;;;;;;2060146;28;20035;-95
2021/08/12 00:03:17;;;;;;;5.50;3.30;;;17.60;79.60;;;;;;2068436;28;20042;-91
2021/08/12 00:04:19;;;;;;;5.60;2.72;;;17.60;79.70;;;;;;2075961;28;20089;-95
2021/08/12 00:05:21;;;;;;;4.63;2.92;;;17.60;79.70;;;;;;2072446;28;20096;-95
2021/08/12 00:06:22;;;;;;;4.45;2.92;;;17.60;79.80;;;;;;2059799;28;20023;-96
2021/08/12 00:07:23;;;;;;;4.13;2.75;;;17.60;79.80;;;;;;2063878;28;20074;-96
2021/08/12 00:08:24;;;;;;;5.40;3.35;;;17.60;79.80;;;;;;2054424;28;20108;-95
2021/08/12 00:09:25;;;;;;;4.63;3.10;;;17.60;79.80;;;;;;2071364;28;20553;-95
2021/08/12 00:10:28;;;;;;;4.70;3.05;;;17.60;79.80;;;;;;2071805;28;20050;-96
2021/08/12 00:11:29;;;;;;;5.22;3.28;;;17.60;79.80;;;;;;2063803;28;20117;-96
2021/08/12 00:12:31;;;;;;;5.22;3.35;;;17.60;79.70;;;;;;2067630;28;20504;-95
2021/08/12 00:13:36;;;;;;;5.40;3.47;;;17.60;79.70;;;;;;2068777;28;20045;-94
2021/08/12 00:14:38;;;;;;;4.38;3.00;;;17.60;79.70;;;;;;2073187;28;20034;-94
2021/08/12 00:15:39;;;;;;;5.80;3.30;;;17.60;79.70;;;;;;2064921;28;20121;-95
2021/08/12 00:16:40;;;;;;;4.90;3.22;;;17.60;79.70;;;;;;2051638;28;20409;-95
2021/08/12 00:17:41;;;;;;;4.30;3.03;;;17.60;79.70;;;;;;2058829;28;20062;-96
2021/08/12 00:18:42;;;;;;;5.10;3.45;;;17.50;79.80;;;;;;2067855;28;20040;-95
2021/08/12 00:19:43;;;;;;;4.82;3.30;;;17.50;79.80;;;;;;2064098;28;20099;-96
2021/08/12 00:20:44;;;;;;;6.45;3.70;;;17.50;79.90;;;;;;2059221;28;20591;-95
2021/08/12 00:21:45;;;;;;;5.20;3.45;;;17.50;79.90;;;;;;2058542;28;20515;-95
2021/08/12 00:22:46;;;;;;;5.32;3.67;;;17.50;80.00;;;;;;2067005;28;20050;-95
2021/08/12 00:23:46;;;;;;;5.32;3.63;;;17.40;80.00;;;;;;2075333;28;20391;-94
2021/08/12 00:24:47;;;;;;;5.82;3.50;;;17.40;80.10;;;;;;2060385;28;20126;-96
2021/08/12 00:25:48;;;;;;;5.30;3.33;;;17.40;80.20;;;;;;2064101;28;20052;-95
2021/08/12 00:26:49;;;;;;;5.45;3.53;;;17.40;80.30;;;;;;2073128;28;20166;-95
2021/08/12 00:27:50;;;;;;;5.57;3.63;;;17.40;80.40;;;;;;2067311;28;20067;-95
2021/08/12 00:28:50;;;;;;;4.78;3.28;;;17.30;81.00;;;;;;2075674;28;20025;-95
2021/08/12 00:29:51;;;;;;;5.53;3.53;;;17.40;80.40;;;;;;2075536;28;20616;-95
2021/08/12 00:30:52;;;;;;;5.82;3.47;;;17.40;80.50;;;;;;2054941;28;20062;-95
2021/08/12 00:31:53;;;;;;;5.72;3.67;;;17.40;80.60;;;;;;2053376;29;20054;-95
2021/08/12 00:32:54;;;;;;;5.32;3.47;;;17.40;80.60;;;;;;2055639;28;20513;-95
2021/08/12 00:33:55;;;;;;;6.47;3.53;;;17.30;80.60;;;;;;2068819;28;20026;-95
2021/08/12 00:34:56;;;;;;;5.50;3.40;;;17.30;80.70;;;;;;2053328;29;20050;-95
2021/08/12 00:35:57;;;;;;;5.88;3.83;;;17.30;80.80;;;;;;2061171;28;20413;-96
2021/08/12 00:36:57;;;;;;;5.85;3.70;;;17.30;80.80;;;;;;2069095;28;20030;-95
2021/08/12 00:37:59;;;;;;;5.45;3.50;;;17.30;80.80;;;;;;2060559;28;20106;-95
2021/08/12 00:39:00;;;;;;;5.20;3.50;;;17.30;80.90;;;;;;2060751;28;20022;-95
2021/08/12 00:40:01;;;;;;;4.97;3.45;;;17.20;80.90;;;;;;2059938;28;20039;-96
2021/08/12 00:41:03;;;;;;;5.50;3.55;;;17.30;81.00;;;;;;2059643;28;20570;-95
2021/08/12 00:42:04;;;;;;;5.32;3.50;;;17.30;81.10;;;;;;2060371;28;20061;-96
2021/08/12 00:43:04;;;;;;;5.18;3.63;;;17.30;81.20;;;;;;2060526;28;20504;-96
2021/08/12 00:44:06;;;;;;;6.10;3.88;;;17.20;81.20;;;;;;2059436;28;20030;-96
2021/08/12 00:45:07;;;;;;;6.70;3.80;;;17.20;81.20;;;;;;2067163;28;20065;-96
2021/08/12 00:46:08;;;;;;;5.65;3.90;;;17.20;81.20;;;;;;2058168;28;20035;-95
2021/08/12 00:47:09;;;;;;;5.63;3.70;;;17.20;81.20;;;;;;2051222;28;20069;-95
2021/08/12 00:48:10;;;;;;;6.60;3.90;;;17.20;81.30;;;;;;2058590;28;20039;-95
2021/08/12 00:49:11;;;;;;;5.47;3.80;;;17.20;81.30;;;;;;2053806;28;20090;-95
2021/08/12 00:50:12;;;;;;;5.72;3.55;;;17.10;81.30;;;;;;2063408;28;20584;-96
2021/08/12 00:51:13;;;;;;;6.03;3.80;;;17.10;81.30;;;;;;2071883;28;20041;-96
2021/08/12 00:52:15;;;;;;;6.57;4.20;;;17.20;81.40;;;;;;2063071;28;20055;-96
2021/08/12 00:53:16;;;;;;;7.00;3.75;;;17.10;81.50;;;;;;2056112;28;20035;-96
2021/08/12 00:54:18;;;;;;;7.18;4.40;;;17.10;81.50;;;;;;2066506;28;20066;-95
2021/08/12 00:55:19;;;;;;;5.88;3.65;;;17.10;81.60;;;;;;2054099;28;20597;-96
2021/08/12 00:56:20;;;;;;;6.82;4.10;;;17.10;81.70;;;;;;2059489;28;20086;-96
2021/08/12 00:57:22;;;;;;;5.88;3.97;;;17.10;81.80;;;;;;2059523;28;20582;-96
2021/08/12 00:58:23;;;;;;;5.72;3.80;;;17.10;81.80;;;;;;2059409;28;20031;-95
2021/08/12 00:59:26;;;;;;;5.93;4.13;;;17.00;81.80;;;;;;2052202;28;20054;-95
2021/08/12 01:00:27;;;;;;;6.25;4.18;;;17.00;81.90;;;;;;2064441;28;20500;-95
2021/08/12 01:01:28;;;;;;;5.65;3.90;;;17.00;81.90;;;;;;2067033;28;20062;-95
2021/08/12 01:02:29;;;;;;;6.53;4.32;;;17.00;81.90;;;;;;2067135;28;20030;-96
2021/08/12 01:03:29;;;;;;;6.15;4.10;;;17.00;81.90;;;;;;2058604;28;20054;-95
2021/08/12 01:04:30;;;;;;;6.00;3.92;;;17.10;82.00;;;;;;2058846;28;20066;-96
2021/08/12 01:05:32;;;;;;;5.70;3.72;;;17.10;82.00;;;;;;2069509;28;20048;-95
2021/08/12 01:06:52;;;;;;;5.93;3.78;;;17.00;81.90;;;;;;2066796;28;20015;-95
2021/08/12 01:08:10;;;;;;;7.13;4.00;;;17.10;82.00;;;;;;2068858;28;20027;-95
2021/08/12 01:09:23;;;;;;;5.65;3.70;;;17.10;82.00;;;;;;2065232;28;20018;-95
2021/08/12 01:10:56;;;;;;;5.85;3.85;;;17.10;82.00;;;;;;2068572;28;20043;-95
2021/08/12 01:12:05;;;;;;;5.38;3.75;;;17.00;81.80;;;;;;2065449;28;20105;-96
2021/08/12 01:13:24;;;;;;;6.05;3.95;;;17.00;81.80;;;;;;2065096;28;20562;-95
2021/08/12 01:14:38;;;;;;;5.00;3.70;;;17.00;81.90;;;;;;2067643;28;20038;-96
2021/08/12 01:15:45;;;;;;;4.85;3.60;;;17.00;81.90;;;;;;2055151;28;20122;-96
2021/08/12 01:16:50;;;;;;;5.68;4.00;;;17.00;82.00;;;;;;2052483;28;20058;-95
2021/08/12 01:18:00;;;;;;;5.57;4.10;;;16.90;82.00;;;;;;2057598;28;20045;-96
2021/08/12 01:19:08;;;;;;;5.72;3.80;;;17.00;82.20;;;;;;2062096;28;20030;-95
2021/08/12 01:20:39;;;;;;;5.30;3.85;;;17.00;82.20;;;;;;2061374;28;20575;-96
2021/08/12 01:21:52;;;;;;;;;;;16.90;82.10;;;;;;2073279;28;20108;-95
2021/08/12 01:22:56;;;;;;;5.55;3.45;;;16.90;82.00;;;;;;2062322;28;19921;-95
2021/08/12 01:24:03;;;;;;;6.30;3.92;;;16.90;82.10;;;;;;2054424;28;20058;-95
2021/08/12 01:25:15;;;;;;;5.88;3.88;;;16.90;82.20;;;;;;2058578;28;20118;-95
2021/08/12 01:26:18;;;;;;;5.55;3.95;;;16.80;82.30;;;;;;2063266;28;20037;-95
2021/08/12 01:27:25;;;;;;;6.65;4.47;;;16.90;82.40;;;;;;2062077;28;20039;-96
2021/08/12 01:28:30;;;;;;;6.13;4.00;;;16.90;82.50;;;;;;2063217;28;20030;-95
2021/08/12 01:29:36;;;;;;;6.20;4.15;;;16.90;82.50;;;;;;2069813;28;20027;-95
2021/08/12 01:30:47;;;;;;;5.28;3.95;;;16.80;82.50;;;;;;2076879;28;20092;-94
2021/08/12 01:32:09;;;;;;;;;;;16.90;82.50;;;;;;2068253;28;20093;-96
2021/08/12 01:33:31;;;;;;;6.00;3.72;;;16.80;82.30;;;;;;2055762;28;19917;-96
2021/08/12 01:34:57;;;;;;;6.45;4.00;;;16.80;82.30;;;;;;2063188;28;20073;-95
2021/08/12 01:36:01;;;;;;;4.88;3.83;;;16.80;82.40;;;;;;2071326;28;20049;-95
2021/08/12 01:37:03;;;;;;;6.60;3.88;;;16.80;82.40;;;;;;2075385;28;20037;-96
2021/08/12 01:38:09;;;;;;;5.13;3.78;;;16.80;82.50;;;;;;2067370;28;20405;-96
2021/08/12 01:39:14;;;;;;;6.20;3.83;;;16.80;82.60;;;;;;2068949;28;20125;-94
2021/08/12 01:40:18;;;;;;;6.18;3.85;;;16.80;82.60;;;;;;2067631;28;20392;-96
2021/08/12 01:41:21;;;;;;;6.13;3.67;;;16.80;82.70;;;;;;2060778;28;20500;-95
2021/08/12 01:42:26;;;;;;;6.28;3.90;;;16.80;82.80;;;;;;2067005;28;20405;-95
2021/08/12 01:43:29;;;;;;;6.88;4.35;;;16.80;82.80;;;;;;2060014;28;20125;-95
2021/08/12 01:44:31;;;;;;;6.00;4.10;;;16.80;82.80;;;;;;2066989;28;20034;-95
2021/08/12 01:45:32;;;;;;;6.15;3.97;;;16.80;82.90;;;;;;2067545;28;20040;-95
2021/08/12 01:46:35;;;;;;;6.22;4.10;;;16.80;82.90;;;;;;2059921;28;20035;-96
2021/08/12 01:47:39;;;;;;;6.72;4.00;;;16.80;82.90;;;;;;2076313;28;20084;-95
2021/08/12 01:48:40;;;;;;;5.90;4.07;;;16.80;83.00;;;;;;2067341;28;20030;-95
2021/08/12 01:49:43;;;;;;;6.45;4.07;;;16.90;83.10;;;;;;2060411;28;20405;-95
2021/08/12 01:50:44;;;;;;;5.72;4.15;;;16.80;83.00;;;;;;2053476;28;20027;-95
2021/08/12 01:51:45;;;;;;;5.93;3.95;;;16.90;83.10;;;;;;2060499;28;20022;-95
2021/08/12 01:52:51;;;;;;;6.55;4.38;;;16.80;82.90;;;;;;2068048;28;20081;-95
2021/08/12 01:53:53;;;;;;;5.97;3.90;;;16.90;83.00;;;;;;2079160;28;20038;-95
2021/08/12 01:54:55;;;;;;;5.38;3.65;;;16.80;82.90;;;;;;2074604;28;20089;-95
2021/08/12 01:55:58;;;;;;;5.80;3.97;;;16.80;82.90;;;;;;2067493;28;20022;-95
2021/08/12 01:56:58;;;;;;;5.63;4.13;;;16.90;82.90;;;;;;2059165;28;20065;-95
2021/08/12 01:58:00;;;;;;;5.93;3.75;;;16.80;82.90;;;;;;2058977;28;20054;-95
2021/08/12 01:59:03;;;;;;;6.22;3.88;;;16.80;83.00;;;;;;2064822;28;20118;-95
2021/08/12 02:00:05;;;;;;;7.05;4.18;;;16.80;83.10;;;;;;2055919;28;20073;-95
2021/08/12 02:01:06;;;;;;;6.15;3.92;;;16.80;83.20;;;;;;2069035;28;20037;-95
2021/08/12 02:02:08;;;;;;;5.75;4.22;;;16.80;83.20;;;;;;2057012;28;20059;-95
2021/08/12 02:03:14;;;;;;;5.57;3.80;;;16.80;83.30;;;;;;2067161;28;20066;-95
2021/08/12 02:04:16;;;;;;;5.50;3.90;;;16.80;83.30;;;;;;2077595;28;20511;-94
2021/08/12 02:05:18;;;;;;;5.50;3.95;;;16.80;83.40;;;;;;2073244;28;20046;-95
2021/08/12 02:06:20;;;;;;;5.68;4.05;;;16.80;83.40;;;;;;2082028;28;20061;-94
2021/08/12 02:07:21;;;;;;;6.03;4.28;;;16.80;83.50;;;;;;2074506;28;20018;-96
2021/08/12 02:08:22;;;;;;;6.07;4.13;;;16.80;83.50;;;;;;2064737;28;20059;-96
2021/08/12 02:09:23;;;;;;;6.05;3.90;;;16.80;83.60;;;;;;2065886;28;20039;-96
2021/08/12 02:10:24;;;;;;;6.03;4.00;;;16.80;83.70;;;;;;2056869;28;20167;-96
2021/08/12 02:11:25;;;;;;;5.40;3.80;;;16.80;84.30;;;;;;2064029;28;20146;-96
2021/08/12 02:12:26;;;;;;;6.70;4.13;;;16.80;83.70;;;;;;2072422;28;20026;-96
2021/08/12 02:13:28;;;;;;;5.65;3.85;;;16.70;83.60;;;;;;2071960;28;20042;-95
2021/08/12 02:14:31;;;;;;;5.82;4.10;;;16.70;83.70;;;;;;2065498;28;20082;-94
2021/08/12 02:15:32;;;;;;;7.07;4.30;;;16.70;83.70;;;;;;2067692;28;20037;-94
2021/08/12 02:16:33;;;;;;;6.28;4.30;;;16.70;83.70;;;;;;2065751;28;20023;-96
2021/08/12 02:17:35;;;;;;;6.68;4.50;;;16.70;83.70;;;;;;2065189;28;20070;-95
2021/08/12 02:18:39;;;;;;;5.88;4.20;;;16.70;83.70;;;;;;2073156;28;20093;-96
2021/08/12 02:19:40;;;;;;;5.25;3.75;;;16.70;83.80;;;;;;2061927;28;20070;-95
2021/08/12 02:20:42;;;;;;;5.40;3.72;;;16.70;84.00;;;;;;2062449;28;20035;-95
2021/08/12 02:21:46;;;;;;;7.07;4.30;;;16.70;84.10;;;;;;2065222;28;20038;-95
2021/08/12 02:23:02;;;;;;;5.90;4.07;;;16.70;84.10;;;;;;2066247;28;20038;-94
2021/08/12 02:24:08;;;;;;;5.80;3.88;;;16.70;84.10;;;;;;2070888;28;20530;-96
2021/08/12 02:25:14;;;;;;;5.45;3.67;;;16.70;84.20;;;;;;2077050;28;20041;-95
2021/08/12 02:26:18;;;;;;;5.35;3.42;;;16.70;84.20;;;;;;2076470;28;20089;-95
2021/08/12 02:27:21;;;;;;;5.25;3.50;;;16.70;84.20;;;;;;2068391;28;20092;-95
2021/08/12 02:28:23;;;;;;;5.85;3.55;;;16.70;84.20;;;;;;2070675;28;20062;-96
2021/08/12 02:29:28;;;;;;;6.03;3.80;;;16.70;84.20;;;;;;2078776;28;20010;-95
2021/08/12 02:30:34;;;;;;;5.88;3.92;;;16.70;84.30;;;;;;2067752;28;20026;-93
2021/08/12 02:31:35;;;;;;;7.30;3.70;;;16.70;84.30;;;;;;2071045;28;20030;-95
2021/08/12 02:32:37;;;;;;;7.07;4.18;;;16.70;84.30;;;;;;2075520;28;20023;-95
2021/08/12 02:33:39;;;;;;;6.10;3.80;;;16.70;84.40;;;;;;2063603;28;20011;-95
2021/08/12 02:34:43;;;;;;;6.72;4.03;;;16.70;84.40;;;;;;2075288;28;20041;-95
2021/08/12 02:35:44;;;;;;;5.65;3.85;;;16.70;84.40;;;;;;2074736;28;20026;-95
2021/08/12 02:36:46;;;;;;;6.55;4.32;;;16.70;84.40;;;;;;2065100;28;20022;-95
2021/08/12 02:37:52;;;;;;;5.63;4.25;;;16.70;84.50;;;;;;2065317;28;20039;-95
2021/08/12 02:38:53;;;;;;;5.22;3.80;;;16.70;84.50;;;;;;2066439;28;20521;-95
2021/08/12 02:39:55;;;;;;;5.38;3.55;;;16.60;84.40;;;;;;2065287;28;20061;-95
2021/08/12 02:40:57;;;;;;;5.93;4.22;;;16.60;84.50;;;;;;2067517;28;20034;-94
2021/08/12 02:42:02;;;;;;;5.70;3.90;;;16.70;84.60;;;;;;2059270;28;20031;-95
2021/08/12 02:43:03;;;;;;;6.95;4.32;;;16.60;84.60;;;;;;2066485;28;20073;-95
2021/08/12 02:44:05;;;;;;;5.60;3.85;;;16.60;84.60;;;;;;2065831;28;20027;-94
2021/08/12 02:45:07;;;;;;;5.32;4.10;;;16.60;84.60;;;;;;2064209;28;20145;-95
2021/08/12 02:46:10;;;;;;;6.00;3.95;;;16.60;84.70;;;;;;2054430;28;20032;-95
2021/08/12 02:47:13;;;;;;;6.28;4.10;;;16.60;84.80;;;;;;2065963;28;20115;-96
2021/08/12 02:48:14;;;;;;;5.90;4.00;;;16.60;84.80;;;;;;2066634;28;20030;-90
2021/08/12 02:49:17;;;;;;;6.13;4.10;;;16.60;84.80;;;;;;2075918;28;20034;-94
2021/08/12 02:50:18;;;;;;;6.45;4.60;;;16.50;84.80;;;;;;2074831;28;20078;-95
2021/08/12 02:51:20;;;;;;;5.60;4.10;;;16.60;84.90;;;;;;2075248;28;20025;-93
2021/08/12 02:52:23;;;;;;;8.05;4.50;;;16.50;84.90;;;;;;2083470;28;20101;-91
2021/08/12 02:53:25;;;;;;;6.15;4.25;;;16.50;85.00;;;;;;2075221;28;20077;-95
2021/08/12 02:54:30;;;;;;;6.38;4.25;;;16.50;85.00;;;;;;2074785;28;20058;-94
2021/08/12 02:55:32;;;;;;;6.15;4.60;;;16.50;85.10;;;;;;2067299;28;20026;-96
2021/08/12 02:56:35;;;;;;;6.97;4.20;;;16.50;85.10;;;;;;2066031;28;20027;-95
2021/08/12 02:57:36;;;;;;;6.82;4.88;;;16.50;85.20;;;;;;2074364;28;20042;-94
2021/08/12 02:58:41;;;;;;;7.05;4.68;;;16.50;85.80;;;;;;2066470;28;20110;-95
2021/08/12 02:59:43;;;;;;;6.20;4.60;;;16.50;85.20;;;;;;2066678;28;20043;-94
2021/08/12 03:00:44;;;;;;;7.18;4.90;;;16.50;85.30;;;;;;2074106;28;20049;-94
2021/08/12 03:01:47;;;;;;;6.80;4.90;;;16.50;85.30;;;;;;2071976;28;20045;-95
2021/08/12 03:02:50;;;;;;;6.25;4.55;;;16.50;85.30;;;;;;2057649;28;20047;-94
2021/08/12 03:03:51;;;;;;;7.45;4.70;;;16.50;85.30;;;;;;2067383;28;20019;-89
2021/08/12 03:04:53;;;;;;;7.10;5.00;;;16.50;85.20;;;;;;2067506;28;20038;-91
2021/08/12 03:05:55;;;;;;;6.65;4.65;;;16.50;85.20;;;;;;2062865;28;20015;-94
2021/08/12 03:07:00;;;;;;;7.35;4.95;;;16.50;85.20;;;;;;2064969;28;20042;-95
2021/08/12 03:08:02;;;;;;;6.80;5.13;;;16.50;85.20;;;;;;2059276;28;20055;-93
2021/08/12 03:09:03;;;;;;;8.05;5.30;;;16.50;85.20;;;;;;2067351;28;20043;-95
2021/08/12 03:10:05;;;;;;;7.68;5.10;;;16.50;85.20;;;;;;2083269;28;20032;-95
2021/08/12 03:11:09;;;;;;;6.93;5.25;;;16.50;85.20;;;;;;2067198;28;20015;-91
2021/08/12 03:12:10;;;;;;;8.77;5.10;;;16.50;85.30;;;;;;2067564;28;20033;-93
2021/08/12 03:13:13;;;;;;;7.65;5.90;;;16.50;85.30;;;;;;2075230;28;20062;-95
2021/08/12 03:14:16;;;;;;;7.25;5.35;;;16.50;85.30;;;;;;2067091;28;20037;-95
2021/08/12 03:15:18;;;;;;;7.38;5.30;;;16.50;85.30;;;;;;2066755;28;20049;-96
2021/08/12 03:16:18;;;;;;;7.40;5.45;;;16.50;85.30;;;;;;2072228;28;20054;-95
2021/08/12 03:17:20;;;;;;;7.68;5.50;;;16.40;85.20;;;;;;2075351;28;20046;-96
2021/08/12 03:18:20;;;;;;;7.20;5.47;;;16.50;85.20;;;;;;2074207;28;20125;-95
2021/08/12 03:19:21;;;;;;;7.68;5.47;;;16.50;85.20;;;;;;2075333;28;20038;-95
2021/08/12 03:20:28;;;;;;;7.05;5.32;;;16.50;85.20;;;;;;2075179;28;20033;-95
2021/08/12 03:21:28;;;;;;;7.85;4.80;;;16.50;85.30;;;;;;2065436;28;20023;-95
2021/08/12 03:22:29;;;;;;;7.40;5.53;;;16.50;85.20;;;;;;2059006;28;20032;-95
2021/08/12 03:23:30;;;;;;;7.90;5.78;;;16.40;85.20;;;;;;2067290;28;20027;-95
2021/08/12 03:24:37;;;;;;;8.00;5.85;;;16.50;85.30;;;;;;2067616;28;20043;-95
2021/08/12 03:25:39;;;;;;;7.72;5.43;;;16.50;85.30;;;;;;2063304;28;20055;-95
2021/08/12 03:26:40;;;;;;;7.55;5.20;;;16.40;85.30;;;;;;2067933;28;20023;-95
2021/08/12 03:27:41;;;;;;;8.32;5.80;;;16.40;85.30;;;;;;2076025;28;20049;-95
2021/08/12 03:28:42;;;;;;;7.57;5.50;;;16.30;85.30;;;;;;2075927;28;20071;-91
2021/08/12 03:29:45;;;;;;;7.28;5.47;;;16.30;85.40;;;;;;2067758;28;20046;-94
2021/08/12 03:30:46;;;;;;;8.13;5.78;;;16.30;85.50;;;;;;2075772;28;20026;-95
2021/08/12 03:31:46;;;;;;;7.78;5.35;;;16.30;85.50;;;;;;2075889;28;20038;-95
2021/08/12 03:32:47;;;;;;;7.93;5.63;;;16.30;85.60;;;;;;2060007;28;20050;-95
2021/08/12 03:33:48;;;;;;;7.53;5.53;;;16.30;85.60;;;;;;2067453;28;20061;-95
2021/08/12 03:34:50;;;;;;;7.82;5.40;;;16.30;85.70;;;;;;2068238;28;20066;-96
2021/08/12 03:35:53;;;;;;;7.38;5.20;;;16.30;85.70;;;;;;2068005;28;20043;-95
2021/08/12 03:36:54;;;;;;;8.13;5.75;;;16.30;85.70;;;;;;2068403;28;20015;-95
2021/08/12 03:37:56;;;;;;;7.93;5.35;;;16.30;85.60;;;;;;2067967;28;20034;-96
2021/08/12 03:38:57;;;;;;;8.63;6.10;;;16.30;85.60;;;;;;2067643;28;20039;-95
2021/08/12 03:39:57;;;;;;;8.05;5.15;;;16.30;85.60;;;;;;2075582;28;20518;-95
2021/08/12 03:40:59;;;;;;;7.50;5.65;;;16.30;85.70;;;;;;2067498;28;20011;-95
2021/08/12 03:42:01;;;;;;;7.40;5.45;;;16.30;85.70;;;;;;2068012;28;20022;-95
2021/08/12 03:43:02;;;;;;;8.20;5.43;;;16.30;85.70;;;;;;2068151;28;20015;-95
2021/08/12 03:44:03;;;;;;;7.30;5.57;;;16.30;85.80;;;;;;2067582;28;20095;-95
2021/08/12 03:45:05;;;;;;;7.93;5.07;;;16.20;85.70;;;;;;2067810;28;20033;-93
2021/08/12 03:46:05;;;;;;;7.50;5.40;;;16.20;85.80;;;;;;2060794;28;20059;-90
2021/08/12 03:47:06;;;;;;;7.00;5.70;;;16.20;85.80;;;;;;2068791;28;20033;-94
2021/08/12 03:48:09;;;;;;;7.35;5.50;;;16.20;85.80;;;;;;2068817;28;20034;-93
2021/08/12 03:49:10;;;;;;;8.15;6.05;;;16.20;85.90;;;;;;2076805;28;20021;-95
2021/08/12 03:50:11;;;;;;;8.00;5.90;;;16.20;85.90;;;;;;2076741;28;20006;-93
2021/08/12 03:51:12;;;;;;;8.35;5.85;;;16.20;85.80;;;;;;2076525;28;20027;-94
2021/08/12 03:52:13;;;;;;;9.13;6.32;;;16.20;85.80;;;;;;2061078;28;20030;-90
2021/08/12 03:53:14;;;;;;;6.97;5.55;;;16.20;85.80;;;;;;2076791;28;20018;-96
2021/08/12 03:54:15;;;;;;;8.05;5.88;;;16.20;85.80;;;;;;2076454;28;20652;-95
2021/08/12 03:55:17;;;;;;;9.07;6.20;;;16.20;85.80;;;;;;2084463;28;20021;-96
2021/08/12 03:56:18;;;;;;;9.35;6.60;;;16.20;85.80;;;;;;2075536;28;20049;-95
2021/08/12 03:57:22;;;;;;;8.30;5.97;;;16.20;85.80;;;;;;2076693;28;20018;-94
2021/08/12 03:58:23;;;;;;;8.45;5.82;;;16.20;85.80;;;;;;2068427;28;20034;-94
2021/08/12 03:59:26;;;;;;;8.30;5.88;;;16.10;85.80;;;;;;2075227;28;20026;-92
2021/08/12 04:00:27;;;;;;;7.72;5.95;;;16.10;85.70;;;;;;2076646;28;20035;-90
2021/08/12 04:01:29;;;;;;;8.00;5.60;;;16.10;85.70;;;;;;2076769;28;20037;-93
2021/08/12 04:02:31;;;;;;;7.50;5.93;;;16.20;85.80;;;;;;2068779;28;20046;-88
2021/08/12 04:03:33;;;;;;;8.25;5.80;;;16.10;85.70;;;;;;2069124;28;20019;-88
2021/08/12 04:04:34;;;;;;;7.50;5.47;;;16.20;85.80;;;;;;2060687;28;20023;-87
2021/08/12 04:05:35;;;;;;;7.50;5.70;;;16.20;85.70;;;;;;2052724;28;20016;-91
2021/08/12 04:06:37;;;;;;;7.68;5.50;;;16.10;85.70;;;;;;2068864;28;20043;-88
2021/08/12 04:07:39;;;;;;;8.38;5.93;;;16.10;85.80;;;;;;2076714;28;20045;-89
2021/08/12 04:08:40;;;;;;;9.00;5.70;;;16.10;85.80;;;;;;2080757;28;20030;-87
2021/08/12 04:09:41;;;;;;;8.30;5.90;;;16.10;85.90;;;;;;2068688;28;20015;-92
2021/08/12 04:10:42;;;;;;;6.65;4.97;;;16.10;85.90;;;;;;2069468;28;20035;-88
2021/08/12 04:11:43;;;;;;;8.15;5.78;;;16.10;86.00;;;;;;2076566;28;20022;-91
2021/08/12 04:12:44;;;;;;;8.48;5.82;;;16.10;86.00;;;;;;2076482;28;20039;-91
2021/08/12 04:13:45;;;;;;;8.07;5.47;;;16.10;86.00;;;;;;2067865;28;20050;-88
2021/08/12 04:14:46;;;;;;;7.25;5.15;;;16.10;86.00;;;;;;2060527;28;20026;-88
2021/08/12 04:15:47;;;;;;;7.35;5.50;;;16.10;86.00;;;;;;2070376;28;20099;-91
2021/08/12 04:16:49;;;;;;;7.70;5.93;;;16.10;86.10;;;;;;2084481;28;20069;-89
2021/08/12 04:17:50;;;;;;;7.03;5.50;;;16.10;86.10;;;;;;2068344;28;20047;-89
2021/08/12 04:18:51;;;;;;;6.90;5.40;;;16.10;86.10;;;;;;2069204;28;20081;-93
2021/08/12 04:19:51;;;;;;;7.82;5.47;;;16.10;86.20;;;;;;2075648;28;20034;-94
2021/08/12 04:20:52;;;;;;;7.22;5.50;;;16.10;86.10;;;;;;2056424;28;20031;-95
2021/08/12 04:21:53;;;;;;;8.13;5.43;;;16.10;86.10;;;;;;2065481;28;20038;-95
2021/08/12 04:22:54;;;;;;;7.82;5.75;;;16.10;86.20;;;;;;2066300;28;20031;-95
2021/08/12 04:23:55;;;;;;;7.57;5.78;;;16.10;86.10;;;;;;2057824;28;20035;-95
2021/08/12 04:24:56;;;;;;;8.55;6.00;;;16.10;86.20;;;;;;2065870;28;20070;-95
2021/08/12 04:25:57;;;;;;;8.02;5.93;;;16.10;86.20;;;;;;2066927;28;20035;-95
2021/08/12 04:26:58;;;;;;;7.25;5.63;;;16.00;86.10;;;;;;2058465;28;20039;-95
2021/08/12 04:27:58;;;;;;;7.95;5.65;;;16.10;86.30;;;;;;2066887;28;20027;-95
2021/08/12 04:28:59;;;;;;;8.27;5.75;;;16.10;86.30;;;;;;2067619;28;20042;-96
2021/08/12 04:30:00;;;;;;;8.48;5.97;;;16.10;86.30;;;;;;2057815;28;20042;-95
2021/08/12 04:31:00;;;;;;;7.30;5.50;;;16.10;86.30;;;;;;2042356;28;20032;-96
2021/08/12 04:32:01;;;;;;;8.30;5.65;;;16.10;86.40;;;;;;2058547;28;20043;-96
2021/08/12 04:33:02;;;;;;;6.72;5.35;;;16.00;86.30;;;;;;2058723;28;20110;-95
2021/08/12 04:34:03;;;;;;;7.95;5.60;;;16.00;86.30;;;;;;2066085;28;20058;-95
2021/08/12 04:35:08;;;;;;;6.88;5.25;;;16.10;86.40;;;;;;2066535;28;20059;-95
2021/08/12 04:36:09;;;;;;;8.75;5.53;;;16.10;86.40;;;;;;2066377;28;20039;-95
2021/08/12 04:37:09;;;;;;;7.93;5.95;;;16.00;86.20;;;;;;2060058;28;20019;-90
2021/08/12 04:38:11;;;;;;;8.25;5.95;;;16.10;86.30;;;;;;2055297;28;20024;-95
2021/08/12 04:39:11;;;;;;;8.35;5.50;;;16.00;86.20;;;;;;2059094;28;20030;-96
2021/08/12 04:40:17;;;;;;;7.78;5.35;;;16.00;86.20;;;;;;2059224;28;20039;-96
2021/08/12 04:41:18;;;;;;;7.00;5.35;;;16.10;86.20;;;;;;2052376;29;20170;-95
2021/08/12 04:42:18;;;;;;;9.65;5.50;;;16.10;86.10;;;;;;2065321;28;20043;-94
2021/08/12 04:43:19;;;;;;;8.07;5.50;;;16.10;86.10;;;;;;2057614;28;20050;-94
2021/08/12 04:44:20;;;;;;;7.53;5.35;;;16.10;86.10;;;;;;2055194;28;20043;-94
2021/08/12 04:45:21;;;;;;;7.60;5.57;;;16.10;86.10;;;;;;2067673;28;20054;-95
2021/08/12 04:46:22;;;;;;;7.95;5.53;;;16.10;86.10;;;;;;2059772;28;20054;-94
2021/08/12 04:47:24;;;;;;;7.68;5.43;;;16.10;86.10;;;;;;2059367;28;20068;-93
2021/08/12 04:48:25;;;;;;;7.30;5.78;;;16.10;86.10;;;;;;2067082;28;20065;-95
2021/08/12 04:49:26;;;;;;;7.90;5.82;;;16.10;86.20;;;;;;2066795;28;20030;-96
2021/08/12 04:50:27;;;;;;;7.85;5.55;;;16.10;86.20;;;;;;2066814;28;20058;-95
2021/08/12 04:51:28;;;;;;;7.68;5.35;;;16.10;86.20;;;;;;2066822;28;20571;-95
2021/08/12 04:52:29;;;;;;;7.43;5.32;;;16.10;86.20;;;;;;2066653;28;20077;-95
2021/08/12 04:53:30;;;;;;;7.75;5.80;;;16.20;86.20;;;;;;2067313;28;20062;-95
2021/08/12 04:54:30;;;;;;;7.47;5.50;;;16.20;86.20;;;;;;2051072;28;20078;-93
2021/08/12 04:55:32;;;;;;;7.95;5.40;;;16.20;86.10;;;;;;2075263;28;20034;-95
2021/08/12 04:56:33;;;;;;;7.53;5.40;;;16.20;86.10;;;;;;2083959;28;20022;-95
2021/08/12 04:57:34;;;;;;;8.10;5.40;;;16.20;86.10;;;;;;2075470;28;20018;-90
2021/08/12 04:58:35;;;;;;;7.38;5.32;;;16.20;86.00;;;;;;2068099;28;20019;-89
2021/08/12 04:59:36;;;;;;;7.57;5.47;;;16.20;86.10;;;;;;2068091;28;20072;-91
2021/08/12 05:00:38;;;;;;;7.35;5.43;;;16.20;86.10;;;;;;2068123;28;20063;-89
2021/08/12 05:01:39;;;;;;;7.40;4.97;;;16.20;86.10;;;;;;2068322;28;20033;-88
2021/08/12 05:02:40;;;;;;;6.43;4.75;;;16.20;86.20;;;;;;2061411;28;20034;-94
2021/08/12 05:03:41;;;;;;;7.82;5.28;;;16.20;86.20;;;;;;2068111;28;20086;-93
2021/08/12 05:04:42;;;;;;;7.82;5.05;;;16.20;86.20;;;;;;2075560;28;20038;-96
2021/08/12 05:05:46;;;;;;;6.93;5.13;;;16.20;86.20;;;;;;2072526;28;20046;-96
2021/08/12 05:06:47;;;;;;;7.10;5.45;;;16.20;86.20;;;;;;2058597;29;20071;-95
2021/08/12 05:07:49;;;;;;;7.43;5.35;;;16.20;86.30;;;;;;2051974;28;20039;-89
2021/08/12 05:09:41;;;;;;;8.23;5.60;;;16.20;86.30;;;;;;2072253;28;20081;-89
2021/08/12 05:10:55;;;;;;;6.25;4.72;;;16.20;86.20;;;;;;2076183;28;20022;-95
2021/08/12 05:13:17;;;;;;;7.90;5.40;;;16.20;86.10;;;;;;2070712;28;20200;-95
2021/08/12 05:14:46;;;;;;;6.95;5.03;;;16.20;86.10;;;;;;2075848;28;20034;-93
2021/08/12 05:15:47;;;;;;;6.97;4.90;;;16.20;86.10;;;;;;2075624;28;20066;-95
2021/08/12 05:16:58;;;;;;;7.28;5.00;;;16.20;86.20;;;;;;2076105;28;20042;-92
2021/08/12 05:18:12;;;;;;;8.80;5.00;;;16.20;86.20;;;;;;2076285;28;20034;-94
2021/08/12 05:19:13;;;;;;;7.03;5.20;;;16.30;86.20;;;;;;2068701;28;20030;-96
2021/08/12 05:20:32;;;;;;;6.50;5.10;;;16.30;86.20;;;;;;2067954;28;20039;-95
2021/08/12 05:21:56;;;;;;;7.22;5.13;;;16.30;86.10;;;;;;2064541;28;20018;-92
2021/08/12 05:22:56;;;;;;;6.68;4.75;;;16.30;86.00;;;;;;2032536;29;20029;-94
2021/08/12 05:23:57;;;;;;;6.90;4.90;;;16.40;86.00;;;;;;2019388;29;20065;-94
2021/08/12 05:24:59;;;;;;;7.00;4.93;;;16.40;85.90;;;;;;2023362;29;20127;-95
2021/08/12 05:26:00;;;;;;;6.85;4.93;;;16.50;85.90;;;;;;2026018;29;20025;-94
2021/08/12 05:27:01;;;;;;;6.75;5.07;;;16.50;85.80;;;;;;2023707;29;20141;-94
2021/08/12 05:28:01;;;;;;;6.43;4.75;;;16.60;85.80;;;;;;2036285;29;20099;-94
2021/08/12 05:29:02;;;;;;;7.07;5.22;;;16.60;85.70;;;;;;2039079;29;20052;-94
2021/08/12 05:30:04;;;;;;;7.80;5.50;;;16.70;85.60;;;;;;2039420;29;20107;-93